Time;durP1;ratioP1;P1;durP2;ratioP2;P2;SDS_P1;SDS_P2;PMS_P1;PMS_P2;Temp;Humidity;BMP_temperature;BMP_pressure;BME280_temperature;BME280_humidity;BME280_pressure;Samples;Min_cycle;Max_cycle;Signal;HPM_P1;HPM_P2
2022/04/27 00:01:31;;;;;;;14.67;8.90;;;9.50;99.90;;;;;;5094787;23;20161;-93
2022/04/27 00:03:32;;;;;;;13.07;7.60;;;9.70;99.90;;;;;;5144719;23;20603;-96
2022/04/27 00:05:34;;;;;;;12.13;7.50;;;9.70;99.90;;;;;;5096453;23;20196;-95
2022/04/27 00:07:35;;;;;;;14.83;8.20;;;9.80;99.90;;;;;;5096839;23;20149;-96
2022/04/27 00:09:36;;;;;;;15.13;8.77;;;9.80;99.90;;;;;;5096858;23;20152;-96
2022/04/27 00:11:36;;;;;;;16.13;8.43;;;9.50;99.90;;;;;;5095152;23;20145;-94
2022/04/27 00:13:37;;;;;;;14.27;7.80;;;9.40;99.90;;;;;;5145296;23;20203;-96
2022/04/27 00:15:38;;;;;;;14.73;7.77;;;9.20;99.90;;;;;;5121209;23;20155;-96
2022/04/27 00:17:39;;;;;;;16.03;8.30;;;9.30;99.90;;;;;;5096714;23;20181;-95
2022/04/27 00:19:40;;;;;;;21.40;7.70;;;9.50;99.90;;;;;;5119547;23;20231;-94
2022/04/27 00:21:41;;;;;;;16.00;8.47;;;9.40;99.90;;;;;;5095316;23;20164;-94
2022/04/27 00:23:42;;;;;;;13.70;7.50;;;9.10;99.90;;;;;;5120189;23;20180;-96
2022/04/27 00:25:44;;;;;;;15.10;7.93;;;9.00;99.90;;;;;;5142678;23;20152;-95
2022/04/27 00:27:46;;;;;;;14.40;8.00;;;9.00;99.90;;;;;;5094089;23;20154;-90
2022/04/27 00:29:47;;;;;;;12.37;6.60;;;8.90;99.90;;;;;;5117194;23;20159;-93
2022/04/27 00:31:48;;;;;;;15.93;7.67;;;8.90;99.90;;;;;;5092241;23;20157;-93
2022/04/27 00:33:49;;;;;;;15.17;7.50;;;8.90;99.90;;;;;;5092516;23;20161;-91
2022/04/27 00:35:51;;;;;;;15.67;7.83;;;8.80;99.90;;;;;;5117262;23;20523;-94
2022/04/27 00:37:51;;;;;;;11.10;6.93;;;8.70;99.90;;;;;;5092585;23;20631;-95
2022/04/27 00:39:52;;;;;;;13.13;7.77;;;8.80;99.90;;;;;;5142023;23;20259;-94
2022/04/27 00:41:59;;;;;;;15.57;7.43;;;8.90;99.90;;;;;;5092967;23;20698;-91
2022/04/27 00:43:59;;;;;;;14.67;7.33;;;8.90;99.90;;;;;;5118193;23;20246;-92
2022/04/27 00:46:00;;;;;;;12.57;7.03;;;8.80;99.90;;;;;;5093651;23;20599;-92
2022/04/27 00:48:01;;;;;;;12.37;7.33;;;8.80;99.90;;;;;;5118830;23;20169;-93
2022/04/27 00:50:02;;;;;;;17.53;7.83;;;8.70;99.90;;;;;;5094298;23;20156;-94
2022/04/27 00:52:03;;;;;;;16.73;7.93;;;8.70;99.90;;;;;;5093775;23;20153;-93
2022/04/27 00:54:04;;;;;;;14.27;7.37;;;8.80;99.90;;;;;;5094827;23;20629;-91
2022/04/27 00:56:05;;;;;;;16.30;7.87;;;8.80;99.90;;;;;;5119015;23;20152;-90
2022/04/27 00:58:06;;;;;;;13.90;7.97;;;8.70;99.90;;;;;;5094107;23;20248;-93
2022/04/27 01:00:08;;;;;;;13.83;7.83;;;8.60;99.90;;;;;;5122158;23;20627;-93
2022/04/27 01:02:09;;;;;;;16.00;7.73;;;8.60;99.90;;;;;;5119143;23;20243;-96
2022/04/27 01:04:10;;;;;;;11.17;7.60;;;8.50;99.90;;;;;;5094446;23;20156;-96
2022/04/27 01:06:12;;;;;;;13.40;7.83;;;8.40;99.90;;;;;;5094591;23;20160;-93
2022/04/27 01:08:20;;;;;;;18.33;8.13;;;8.30;99.90;;;;;;5094742;23;20612;-96
2022/04/27 01:10:21;;;;;;;20.07;8.60;;;8.20;99.90;;;;;;5118689;23;20147;-94
2022/04/27 01:12:23;;;;;;;11.30;7.80;;;8.20;99.90;;;;;;5144059;23;20211;-96
2022/04/27 01:14:43;;;;;;;14.00;8.33;;;8.10;99.90;;;;;;5120844;23;20543;-96
2022/04/27 01:16:54;;;;;;;18.37;8.43;;;8.10;99.90;;;;;;5094566;23;20551;-94
2022/04/27 01:18:55;;;;;;;16.80;8.47;;;8.30;99.90;;;;;;5094187;23;20168;-96
2022/04/27 01:20:56;;;;;;;16.13;8.97;;;8.30;99.90;;;;;;5118331;23;20304;-96
2022/04/27 01:22:58;;;;;;;14.40;8.27;;;8.30;99.90;;;;;;5093437;23;20156;-96
2022/04/27 01:24:59;;;;;;;19.50;8.93;;;8.40;99.90;;;;;;5118861;23;20159;-96
2022/04/27 01:27:00;;;;;;;16.33;8.80;;;8.40;99.90;;;;;;5118682;23;20576;-95
2022/04/27 01:29:01;;;;;;;16.23;8.73;;;8.40;99.90;;;;;;5093530;23;20232;-96
2022/04/27 01:31:08;;;;;;;15.33;9.23;;;8.40;99.90;;;;;;5118546;23;20152;-93
2022/04/27 01:33:10;;;;;;;12.40;8.47;;;8.40;99.90;;;;;;5093972;23;20153;-96
2022/04/27 01:35:12;;;;;;;14.30;9.33;;;8.40;99.90;;;;;;5119065;23;20513;-96
2022/04/27 01:39:34;;;;;;;18.50;8.93;;;8.50;99.90;;;;;;5119574;23;20158;-94
2022/04/27 01:41:36;;;;;;;16.10;8.93;;;8.50;99.90;;;;;;5094620;23;20512;-95
2022/04/27 01:43:38;;;;;;;16.77;8.60;;;8.50;99.90;;;;;;5119398;23;20149;-95
2022/04/27 01:45:39;;;;;;;18.20;9.60;;;8.40;99.90;;;;;;5094632;23;20149;-95
2022/04/27 01:47:40;;;;;;;19.53;10.27;;;8.40;99.90;;;;;;5093855;23;20160;-96
2022/04/27 01:49:41;;;;;;;17.13;9.90;;;8.30;99.90;;;;;;5094542;23;20153;-94
2022/04/27 01:54:16;;;;;;;16.30;9.47;;;8.20;99.90;;;;;;5117953;23;20183;-96
2022/04/27 01:56:18;;;;;;;18.07;10.07;;;8.30;99.90;;;;;;5092674;23;20157;-94
2022/04/27 01:58:22;;;;;;;14.50;10.00;;;8.20;99.90;;;;;;5094921;23;20203;-96
2022/04/27 02:00:26;;;;;;;19.10;9.53;;;8.00;99.90;;;;;;5119007;23;20699;-95
2022/04/27 02:02:27;;;;;;;16.03;9.77;;;7.90;99.90;;;;;;5094751;23;20153;-96
2022/04/27 02:04:30;;;;;;;16.77;9.77;;;8.10;99.90;;;;;;5118650;23;20156;-96
2022/04/27 02:06:35;;;;;;;17.60;9.80;;;7.90;99.90;;;;;;5119015;23;20152;-93
2022/04/27 02:08:37;;;;;;;16.37;9.77;;;7.80;99.90;;;;;;5093924;23;20252;-94
2022/04/27 02:10:38;;;;;;;16.50;10.00;;;7.80;99.90;;;;;;5118242;23;20159;-96
2022/04/27 02:12:39;;;;;;;17.90;10.10;;;7.80;99.90;;;;;;5093853;23;20603;-94
2022/04/27 02:14:58;;;;;;;19.63;10.57;;;7.80;99.90;;;;;;5097741;23;20161;-95
2022/04/27 02:16:59;;;;;;;21.03;10.17;;;7.80;99.90;;;;;;5118386;23;20153;-92
2022/04/27 02:18:59;;;;;;;14.93;9.80;;;7.80;99.90;;;;;;5094062;23;20172;-96
2022/04/27 02:21:00;;;;;;;20.87;10.77;;;7.80;99.90;;;;;;5094032;23;20208;-96
2022/04/27 02:23:01;;;;;;;17.63;9.73;;;7.80;99.90;;;;;;5093912;23;20188;-96
2022/04/27 02:25:03;;;;;;;16.67;10.60;;;7.60;99.90;;;;;;5093856;23;20214;-93
2022/04/27 02:27:04;;;;;;;27.80;11.60;;;7.50;99.90;;;;;;5094054;23;20241;-95
2022/04/27 02:29:05;;;;;;;19.00;10.30;;;7.40;99.90;;;;;;5143324;23;20176;-96
2022/04/27 02:31:08;;;;;;;22.07;12.07;;;7.40;99.90;;;;;;5093846;23;20153;-96
2022/04/27 02:33:09;;;;;;;20.03;11.80;;;7.40;99.90;;;;;;5094183;23;20180;-94
2022/04/27 02:35:10;;;;;;;17.43;10.63;;;7.50;99.90;;;;;;5118105;23;20157;-96
2022/04/27 02:37:12;;;;;;;19.87;11.23;;;7.50;99.90;;;;;;5094113;23;20144;-96
2022/04/27 02:39:16;;;;;;;20.50;11.50;;;7.50;99.90;;;;;;5094192;23;20208;-95
2022/04/27 02:41:17;;;;;;;24.00;11.37;;;7.50;99.90;;;;;;5118677;23;20192;-95
2022/04/27 02:43:18;;;;;;;19.23;11.70;;;7.40;99.90;;;;;;5094175;23;20149;-93
2022/04/27 02:45:20;;;;;;;20.77;11.60;;;7.40;99.90;;;;;;5093779;23;20180;-96
2022/04/27 02:47:21;;;;;;;25.80;12.87;;;7.50;99.90;;;;;;5118915;23;20152;-94
2022/04/27 02:51:48;;;;;;;20.17;11.57;;;7.50;99.90;;;;;;5118986;23;20503;-96
2022/04/27 02:53:50;;;;;;;19.63;12.03;;;7.50;99.90;;;;;;5095211;23;20148;-96
2022/04/27 02:55:51;;;;;;;21.63;11.73;;;7.50;99.90;;;;;;5119071;23;20220;-96
2022/04/27 02:57:52;;;;;;;21.33;12.13;;;7.40;99.90;;;;;;5094381;23;20296;-96
2022/04/27 02:59:54;;;;;;;25.50;12.27;;;7.40;99.90;;;;;;5095226;23;20220;-94
2022/04/27 03:01:55;;;;;;;19.90;12.17;;;7.40;99.90;;;;;;5120608;23;20159;-92
2022/04/27 03:03:56;;;;;;;23.93;13.10;;;7.40;99.90;;;;;;5098123;23;20157;-96
2022/04/27 03:05:57;;;;;;;22.13;12.67;;;7.30;99.90;;;;;;5098420;23;20149;-96
2022/04/27 03:08:00;;;;;;;23.90;13.00;;;7.40;99.90;;;;;;5095550;23;20176;-96
2022/04/27 03:10:04;;;;;;;27.47;12.80;;;7.50;99.90;;;;;;5095834;23;20149;-93
2022/04/27 03:12:07;;;;;;;24.33;12.70;;;7.40;99.90;;;;;;5098381;23;20671;-96
2022/04/27 03:14:12;;;;;;;21.97;12.60;;;7.30;99.90;;;;;;5098084;23;20149;-96
2022/04/27 03:16:13;;;;;;;23.13;13.23;;;7.20;99.90;;;;;;5098032;23;20227;-96
2022/04/27 03:18:17;;;;;;;27.13;13.23;;;7.20;99.90;;;;;;5097017;23;20231;-94
2022/04/27 03:20:18;;;;;;;26.47;14.40;;;7.30;99.90;;;;;;5098874;23;20176;-95
2022/04/27 03:22:19;;;;;;;30.10;13.83;;;7.30;99.90;;;;;;5121494;23;20159;-95
2022/04/27 03:24:20;;;;;;;25.80;13.83;;;7.30;99.90;;;;;;5095374;23;20153;-95
2022/04/27 03:26:22;;;;;;;26.63;14.17;;;7.30;99.90;;;;;;5094369;23;20157;-96
2022/04/27 03:28:22;;;;;;;26.30;14.23;;;7.30;99.90;;;;;;5094936;23;20188;-96
2022/04/27 03:30:23;;;;;;;23.47;14.53;;;7.40;99.90;;;;;;5121836;23;20148;-96
2022/04/27 03:32:25;;;;;;;22.27;13.33;;;7.30;99.90;;;;;;5098302;23;20148;-96
2022/04/27 03:34:32;;;;;;;26.57;14.50;;;7.30;99.90;;;;;;5097182;23;20223;-96
2022/04/27 03:36:34;;;;;;;22.57;13.50;;;7.20;99.90;;;;;;5121205;23;20168;-95
2022/04/27 03:38:35;;;;;;;26.20;14.30;;;7.20;99.90;;;;;;5097020;23;20256;-93
2022/04/27 03:40:38;;;;;;;25.50;14.37;;;7.10;99.90;;;;;;5095207;23;20184;-95
2022/04/27 03:42:39;;;;;;;25.37;13.90;;;7.10;99.90;;;;;;5094986;23;20168;-96
2022/04/27 03:44:39;;;;;;;22.47;14.00;;;7.00;99.90;;;;;;5096336;23;20658;-96
2022/04/27 03:46:41;;;;;;;25.73;13.53;;;7.10;99.90;;;;;;5120663;23;20610;-96
2022/04/27 03:48:42;;;;;;;24.30;13.53;;;7.10;99.90;;;;;;5119962;23;20172;-96
2022/04/27 03:50:44;;;;;;;23.97;13.27;;;7.10;99.90;;;;;;5118171;23;20229;-95
2022/04/27 03:52:45;;;;;;;27.57;14.20;;;7.10;99.90;;;;;;5119160;23;20152;-94
2022/04/27 03:54:46;;;;;;;22.07;13.93;;;7.10;99.90;;;;;;5119101;23;20179;-96
2022/04/27 03:56:47;;;;;;;23.67;13.60;;;6.90;99.90;;;;;;5118914;23;20153;-96
2022/04/27 03:58:49;;;;;;;25.20;14.47;;;6.80;99.90;;;;;;5094568;23;20173;-95
2022/04/27 04:00:50;;;;;;;22.13;13.13;;;6.50;99.90;;;;;;5095310;23;20244;-95
2022/04/27 04:02:59;;;;;;;24.93;12.90;;;6.40;99.90;;;;;;5119750;23;20152;-95
2022/04/27 04:05:00;;;;;;;23.90;13.87;;;6.40;99.90;;;;;;5118841;23;20156;-96
2022/04/27 04:07:02;;;;;;;27.73;15.10;;;6.80;99.90;;;;;;5143560;23;20193;-96
2022/04/27 04:09:09;;;;;;;27.57;15.73;;;7.30;99.90;;;;;;5094589;23;20169;-96
2022/04/27 04:11:11;;;;;;;25.40;14.30;;;7.60;99.90;;;;;;5093114;23;20153;-96
2022/04/27 04:13:32;;;;;;;38.73;16.33;;;7.40;99.90;;;;;;5098889;23;20218;-96
2022/04/27 04:15:51;;;;;;;30.80;15.43;;;7.20;99.90;;;;;;5099246;23;20229;-96
2022/04/27 04:18:30;;;;;;;26.00;14.27;;;7.10;99.90;;;;;;5123896;23;20184;-96
2022/04/27 04:20:45;;;;;;;26.73;14.37;;;6.90;99.90;;;;;;5098035;23;20275;-96
2022/04/27 04:22:54;;;;;;;27.90;14.63;;;7.00;99.90;;;;;;5120005;23;20281;-93
2022/04/27 04:29:45;;;;;;;30.77;14.33;;;6.80;99.90;;;;;;5120277;23;20606;-96
2022/04/27 04:31:46;;;;;;;28.37;15.23;;;6.80;99.90;;;;;;5095831;23;20149;-96
2022/04/27 04:34:00;;;;;;;25.40;14.60;;;6.70;99.90;;;;;;5119965;23;20159;-96
2022/04/27 04:36:01;;;;;;;27.83;13.40;;;6.70;99.90;;;;;;5119795;23;20229;-96
2022/04/27 04:38:06;;;;;;;27.07;14.27;;;6.90;99.90;;;;;;5094828;23;20232;-96
2022/04/27 04:40:08;;;;;;;23.97;14.63;;;7.00;99.90;;;;;;5119348;23;20192;-96
2022/04/27 04:42:09;;;;;;;26.60;13.93;;;7.10;99.90;;;;;;5094963;23;20200;-96
2022/04/27 04:44:11;;;;;;;28.90;15.07;;;7.40;99.90;;;;;;5144361;23;20226;-96
2022/04/27 04:46:32;;;;;;;27.93;14.97;;;7.50;99.90;;;;;;5077930;23;20492;-94
2022/04/27 04:48:55;;;;;;;35.13;14.87;;;8.00;99.90;;;;;;5098917;23;20168;-96
2022/04/27 04:51:07;;;;;;;27.60;16.33;;;8.30;99.90;;;;;;5142305;23;20167;-95
2022/04/27 04:53:22;;;;;;;35.37;15.53;;;8.30;99.90;;;;;;5097907;23;20184;-96
2022/04/27 04:55:48;;;;;;;39.90;17.03;;;8.30;99.90;;;;;;5120192;23;20148;-95
2022/04/27 04:58:18;;;;;;;33.73;15.67;;;8.10;99.90;;;;;;5101278;23;20168;-95
2022/04/27 05:00:48;;;;;;;30.23;16.90;;;7.90;99.90;;;;;;5076794;23;20192;-95
2022/04/27 05:03:24;;;;;;;45.50;16.97;;;7.80;99.90;;;;;;5121009;23;20502;-93
2022/04/27 05:05:48;;;;;;;32.43;15.83;;;7.70;99.90;;;;;;5105826;23;20156;-95
2022/04/27 05:08:11;;;;;;;28.57;15.73;;;7.70;99.90;;;;;;5104629;23;20172;-94
2022/04/27 05:10:32;;;;;;;29.80;16.17;;;7.70;99.90;;;;;;5119995;23;20186;-95
2022/04/27 05:12:44;;;;;;;30.50;16.47;;;7.60;99.90;;;;;;5097870;23;20177;-96
2022/04/27 05:15:06;;;;;;;31.30;15.77;;;7.60;99.90;;;;;;5121284;23;20152;-96
2022/04/27 05:17:29;;;;;;;33.43;16.03;;;7.60;99.90;;;;;;5101931;23;20638;-96
2022/04/27 05:19:56;;;;;;;32.93;16.70;;;7.60;99.90;;;;;;5084440;23;20231;-92
2022/04/27 05:22:12;;;;;;;29.43;15.33;;;7.60;99.90;;;;;;5100513;23;20207;-95
2022/04/27 05:24:33;;;;;;;33.70;17.10;;;7.70;99.90;;;;;;5120536;23;20175;-94
2022/04/27 05:26:57;;;;;;;31.90;15.83;;;7.70;99.90;;;;;;5123935;23;20201;-95
2022/04/27 05:31:59;;;;;;;29.07;16.10;;;7.70;99.90;;;;;;5125706;23;20156;-96
2022/04/27 05:34:24;;;;;;;31.13;15.73;;;7.70;99.90;;;;;;5064602;23;20153;-96
2022/04/27 05:36:31;;;;;;;31.87;15.10;;;7.80;99.90;;;;;;5099377;23;20208;-95
2022/04/27 05:38:51;;;;;;;36.03;16.27;;;7.80;99.90;;;;;;5144310;23;20182;-95
2022/04/27 05:41:10;;;;;;;32.53;15.03;;;7.80;99.90;;;;;;5119965;23;20199;-94
2022/04/27 05:43:26;;;;;;;33.70;15.80;;;7.80;99.90;;;;;;5098470;23;20149;-93
2022/04/27 05:45:42;;;;;;;37.40;16.43;;;7.90;99.90;;;;;;5119704;23;20163;-94
2022/04/27 05:48:09;;;;;;;29.93;16.20;;;7.90;99.90;;;;;;5075138;23;20255;-95
2022/04/27 05:50:36;;;;;;;32.50;16.23;;;8.10;99.90;;;;;;5099560;23;20171;-95
2022/04/27 05:53:00;;;;;;;32.47;15.50;;;8.30;99.90;;;;;;5084785;23;20148;-95
2022/04/27 05:55:20;;;;;;;26.20;15.60;;;8.40;99.90;;;;;;5119426;23;20164;-92
2022/04/27 05:57:43;;;;;;;29.60;15.83;;;8.70;99.90;;;;;;5064193;23;20600;-92
2022/04/27 05:59:45;;;;;;;27.30;14.90;;;9.00;99.90;;;;;;5119323;23;20167;-92
2022/04/27 06:02:09;;;;;;;30.87;14.47;;;9.10;99.90;;;;;;5128402;23;20231;-94
2022/04/27 06:04:11;;;;;;;30.30;15.10;;;9.10;99.90;;;;;;5096234;23;20168;-96
2022/04/27 06:06:18;;;;;;;27.87;14.13;;;9.00;99.90;;;;;;5119570;23;20156;-94
2022/04/27 06:08:19;;;;;;;33.57;15.00;;;8.90;99.90;;;;;;5093819;23;20233;-95
2022/04/27 06:10:22;;;;;;;23.17;13.03;;;8.90;99.90;;;;;;5143948;23;20183;-94
2022/04/27 06:12:44;;;;;;;28.43;13.80;;;9.00;99.90;;;;;;5121456;23;20547;-92
2022/04/27 06:15:04;;;;;;;27.57;13.30;;;9.00;99.90;;;;;;5120581;23;20205;-95
2022/04/27 06:17:05;;;;;;;25.80;14.43;;;9.10;99.90;;;;;;5097208;23;20161;-94
2022/04/27 06:19:07;;;;;;;22.93;13.87;;;9.00;99.90;;;;;;5119737;23;20169;-95
2022/04/27 06:21:10;;;;;;;21.73;12.03;;;9.10;99.90;;;;;;5096938;23;20184;-93
2022/04/27 06:23:13;;;;;;;20.33;11.47;;;9.00;99.90;;;;;;5096053;23;20160;-95
2022/04/27 06:25:14;;;;;;;21.67;12.50;;;8.90;99.90;;;;;;5095261;23;20163;-93
2022/04/27 06:27:41;;;;;;;27.17;12.90;;;8.90;99.90;;;;;;5132957;23;20176;-92
2022/04/27 06:29:43;;;;;;;25.63;12.70;;;9.10;99.90;;;;;;5099205;23;20264;-96
2022/04/27 06:31:45;;;;;;;20.77;11.53;;;9.20;99.90;;;;;;5133810;23;20181;-93
2022/04/27 06:33:54;;;;;;;22.87;11.67;;;9.30;99.90;;;;;;5110717;23;20197;-92
2022/04/27 06:35:55;;;;;;;20.80;11.50;;;9.40;99.90;;;;;;5131992;23;20518;-93
2022/04/27 06:38:01;;;;;;;20.57;11.17;;;9.30;99.90;;;;;;5111220;23;20189;-95
2022/04/27 06:40:02;;;;;;;23.17;10.57;;;9.20;99.90;;;;;;5134328;23;20359;-94
2022/04/27 06:42:04;;;;;;;17.10;9.57;;;9.10;99.90;;;;;;5109469;23;20175;-92
2022/04/27 06:44:07;;;;;;;19.33;10.33;;;9.10;99.90;;;;;;5134629;23;20148;-92
2022/04/27 06:46:46;;;;;;;18.03;9.33;;;9.10;99.90;;;;;;5091365;23;20140;-95
2022/04/27 06:49:24;;;;;;;17.90;9.93;;;9.20;99.90;;;;;;5108186;23;20241;-95
2022/04/27 06:51:47;;;;;;;20.57;9.03;;;9.40;99.90;;;;;;5094565;23;20179;-96
2022/04/27 06:54:20;;;;;;;13.73;8.60;;;9.40;99.90;;;;;;5081196;23;20165;-95
2022/04/27 06:56:40;;;;;;;14.27;7.37;;;9.50;99.90;;;;;;5108253;23;20176;-95
2022/04/27 06:59:05;;;;;;;18.30;8.20;;;9.60;99.90;;;;;;5090606;23;20165;-91
2022/04/27 07:01:18;;;;;;;13.40;7.20;;;9.70;99.90;;;;;;5133096;23;20183;-92
2022/04/27 07:03:22;;;;;;;16.20;8.60;;;9.70;99.90;;;;;;5086943;23;20169;-92
2022/04/27 07:05:46;;;;;;;13.70;7.40;;;9.70;99.90;;;;;;5108470;23;20160;-91
2022/04/27 07:07:48;;;;;;;16.23;8.27;;;9.70;99.90;;;;;;5085677;23;20149;-94
2022/04/27 07:09:49;;;;;;;14.67;7.40;;;10.00;99.90;;;;;;5132520;23;20170;-92
2022/04/27 07:12:02;;;;;;;13.17;6.97;;;10.70;99.90;;;;;;5083455;23;20141;-93
2022/04/27 07:14:08;;;;;;;16.17;7.33;;;11.40;99.90;;;;;;5109009;23;20159;-94
2022/04/27 07:16:21;;;;;;;12.67;6.40;;;12.20;99.90;;;;;;5108695;23;20176;-93
2022/04/27 07:18:28;;;;;;;16.77;6.80;;;13.30;99.90;;;;;;5082329;23;20241;-92
2022/04/27 07:20:29;;;;;;;16.98;6.50;;;13.70;99.90;;;;;;5080359;23;20600;-92
2022/04/27 07:22:33;;;;;;;9.27;5.60;;;14.00;99.90;;;;;;5058624;23;20162;-92
2022/04/27 07:24:45;;;;;;;10.70;6.03;;;14.30;99.90;;;;;;5106686;23;20156;-92
2022/04/27 07:26:51;;;;;;;11.43;6.38;;;14.80;99.90;;;;;;5109110;23;20612;-95
2022/04/27 07:28:55;;;;;;;15.27;6.32;;;14.80;99.90;;;;;;5106027;23;20168;-95
2022/04/27 07:30:56;;;;;;;9.95;5.63;;;14.70;99.90;;;;;;5085648;23;20227;-93
2022/04/27 07:32:57;;;;;;;11.18;5.47;;;14.80;99.90;;;;;;5083406;23;20138;-92
2022/04/27 07:35:01;;;;;;;8.10;4.75;;;15.20;99.90;;;;;;5082137;23;20157;-92
2022/04/27 07:37:03;;;;;;;10.80;5.50;;;15.30;99.90;;;;;;5102525;23;20156;-96
2022/04/27 07:39:09;;;;;;;14.75;5.90;;;15.00;99.90;;;;;;5132888;23;20167;-95
2022/04/27 07:41:13;;;;;;;14.70;6.00;;;15.50;99.90;;;;;;5083535;23;20193;-93
2022/04/27 07:43:18;;;;;;;10.85;5.03;;;15.80;99.90;;;;;;5083465;23;20146;-96
2022/04/27 07:45:19;;;;;;;13.77;5.15;;;16.00;99.90;;;;;;5083480;23;20195;-93
2022/04/27 07:47:20;;;;;;;13.05;6.07;;;16.00;99.90;;;;;;5104505;23;20638;-93
2022/04/27 07:49:21;;;;;;;8.35;5.07;;;16.00;99.90;;;;;;5103954;23;20212;-92
2022/04/27 07:51:22;;;;;;;9.38;4.95;;;16.20;99.90;;;;;;5106059;23;20149;-93
2022/04/27 07:53:23;;;;;;;17.40;5.70;;;16.30;99.90;;;;;;5105352;23;20133;-96
2022/04/27 07:55:25;;;;;;;10.73;5.25;;;16.60;99.90;;;;;;5107124;23;20489;-96
2022/04/27 07:57:31;;;;;;;10.77;5.70;;;16.50;99.90;;;;;;5108972;23;20149;-94
2022/04/27 07:59:32;;;;;;;10.50;5.20;;;16.60;99.90;;;;;;5108363;23;20168;-95
2022/04/27 08:01:33;;;;;;;5.47;4.18;;;16.80;99.90;;;;;;5082708;23;20173;-93
2022/04/27 08:03:37;;;;;;;8.95;4.75;;;17.20;99.90;;;;;;5130690;23;20163;-92
2022/04/27 08:05:38;;;;;;;9.40;4.93;;;16.90;99.90;;;;;;5102092;23;20153;-96
2022/04/27 08:07:44;;;;;;;12.55;5.10;;;17.60;99.90;;;;;;5102138;23;20155;-95
2022/04/27 08:09:46;;;;;;;7.47;4.70;;;17.50;99.90;;;;;;5081947;23;20142;-93
2022/04/27 08:11:47;;;;;;;16.92;5.15;;;16.70;99.90;;;;;;5107147;23;20153;-95
2022/04/27 08:13:50;;;;;;;9.50;5.22;;;16.50;99.90;;;;;;5124981;23;20152;-95
2022/04/27 08:15:52;;;;;;;11.55;5.25;;;16.60;99.90;;;;;;5099321;23;20175;-94
2022/04/27 08:18:00;;;;;;;9.35;5.07;;;17.00;99.90;;;;;;5073618;23;20268;-93
2022/04/27 08:22:22;;;;;;;10.20;4.65;;;16.40;99.90;;;;;;5104469;23;20149;-96
2022/04/27 08:24:24;;;;;;;10.27;4.93;;;15.90;99.90;;;;;;5102993;23;20549;-93
2022/04/27 08:26:29;;;;;;;8.38;4.80;;;15.70;99.90;;;;;;5105696;23;20156;-94
2022/04/27 08:28:31;;;;;;;10.60;4.80;;;15.80;99.90;;;;;;5081172;23;20174;-96
2022/04/27 08:30:55;;;;;;;8.38;4.63;;;16.40;99.90;;;;;;5107502;23;20210;-93
2022/04/27 08:33:02;;;;;;;8.60;4.22;;;17.00;99.90;;;;;;5104719;23;20153;-95
2022/04/27 08:35:09;;;;;;;8.20;4.60;;;16.30;99.90;;;;;;5082697;23;20138;-95
2022/04/27 08:37:09;;;;;;;11.18;4.22;;;15.90;99.90;;;;;;5078434;23;20153;-95
2022/04/27 08:39:13;;;;;;;13.82;4.45;;;15.80;99.90;;;;;;5107978;23;20279;-93
2022/04/27 08:41:14;;;;;;;8.40;3.55;;;15.70;99.90;;;;;;5105381;23;20165;-96
2022/04/27 08:43:16;;;;;;;10.82;3.97;;;16.10;99.90;;;;;;5075924;23;20146;-95
2022/04/27 08:45:17;;;;;;;13.77;4.22;;;16.30;99.90;;;;;;5080389;23;20145;-93
2022/04/27 08:47:23;;;;;;;7.65;3.47;;;16.70;99.90;;;;;;5129142;23;20149;-95
2022/04/27 08:49:24;;;;;;;7.82;3.58;;;17.00;99.90;;;;;;5101914;23;20173;-93
2022/04/27 08:51:30;;;;;;;5.45;3.05;;;17.10;99.90;;;;;;5127139;23;20148;-92
2022/04/27 08:53:32;;;;;;;6.72;3.75;;;16.70;99.90;;;;;;5080525;23;20161;-93
2022/04/27 08:55:45;;;;;;;8.95;4.15;;;16.80;99.90;;;;;;5102577;23;20153;-93
2022/04/27 08:57:49;;;;;;;9.95;4.03;;;16.90;99.90;;;;;;5122907;23;20186;-94
2022/04/27 08:59:50;;;;;;;6.25;3.25;;;17.10;99.90;;;;;;5098180;23;20156;-93
2022/04/27 09:01:51;;;;;;;10.35;4.25;;;16.70;99.90;;;;;;5071849;23;20158;-92
2022/04/27 09:03:52;;;;;;;8.23;3.33;;;16.90;99.90;;;;;;5098047;23;20180;-95
2022/04/27 09:05:54;;;;;;;6.72;4.20;;;16.90;99.90;;;;;;5096870;23;20160;-94
2022/04/27 09:07:56;;;;;;;8.48;3.60;;;16.70;99.90;;;;;;5099393;23;20296;-95
2022/04/27 09:09:58;;;;;;;5.80;3.08;;;16.30;99.90;;;;;;5125797;23;20163;-94
2022/04/27 09:12:02;;;;;;;8.82;3.72;;;16.10;99.90;;;;;;5074368;23;20146;-95
2022/04/27 09:14:07;;;;;;;9.10;3.90;;;16.20;99.90;;;;;;5099536;23;20180;-95
2022/04/27 09:16:08;;;;;;;5.85;3.22;;;16.40;99.90;;;;;;5099954;23;20168;-91
2022/04/27 09:20:47;;;;;;;8.35;3.58;;;16.70;99.90;;;;;;5096711;23;20189;-96
2022/04/27 09:22:48;;;;;;;7.85;3.75;;;17.00;99.90;;;;;;5095758;23;20152;-95
2022/04/27 09:24:50;;;;;;;9.05;3.38;;;17.30;99.90;;;;;;5075772;23;20229;-94
2022/04/27 09:27:18;;;;;;;7.78;3.60;;;17.20;99.90;;;;;;5096937;23;20217;-92
2022/04/27 09:29:26;;;;;;;6.90;3.30;;;17.30;99.90;;;;;;5067318;23;20177;-96
2022/04/27 09:31:31;;;;;;;9.20;3.72;;;17.50;99.90;;;;;;5100539;23;20148;-94
2022/04/27 09:33:37;;;;;;;8.93;3.63;;;17.50;99.90;;;;;;5098602;23;20504;-91
2022/04/27 09:35:39;;;;;;;8.20;3.83;;;17.00;99.90;;;;;;5100464;23;20200;-93
2022/04/27 09:37:43;;;;;;;10.05;3.75;;;16.90;99.90;;;;;;5099333;23;20153;-92
2022/04/27 09:40:04;;;;;;;11.70;3.22;;;17.10;99.90;;;;;;5096287;23;20629;-92
2022/04/27 09:42:08;;;;;;;4.50;2.80;;;17.30;99.90;;;;;;5120578;23;20192;-92
2022/04/27 09:44:29;;;;;;;10.27;2.83;;;17.10;99.90;;;;;;5094860;23;20500;-95
2022/04/27 09:46:31;;;;;;;6.35;3.45;;;16.50;99.90;;;;;;5073060;23;20158;-95
2022/04/27 09:48:32;;;;;;;6.82;2.78;;;17.30;99.90;;;;;;5071951;23;20173;-93
2022/04/27 09:50:58;;;;;;;9.27;3.45;;;17.80;99.90;;;;;;5093631;23;20580;-92
2022/04/27 09:53:00;;;;;;;6.40;3.50;;;17.60;99.90;;;;;;5119237;23;20237;-94
2022/04/27 09:55:02;;;;;;;7.80;3.28;;;17.60;99.90;;;;;;5069946;23;20195;-95
2022/04/27 09:57:05;;;;;;;5.82;3.10;;;16.80;99.90;;;;;;5095050;23;20261;-92
2022/04/27 09:59:07;;;;;;;6.97;3.95;;;17.00;99.90;;;;;;5069242;23;20228;-94
2022/04/27 10:01:10;;;;;;;8.73;3.85;;;17.70;99.90;;;;;;5119405;23;20488;-95
2022/04/27 10:03:15;;;;;;;6.65;3.42;;;17.40;99.90;;;;;;5068631;23;20228;-92
2022/04/27 10:05:15;;;;;;;5.90;3.20;;;17.30;99.90;;;;;;5118453;23;20518;-94
2022/04/27 10:07:20;;;;;;;5.03;3.53;;;17.20;99.90;;;;;;5068622;23;20240;-94
2022/04/27 10:09:22;;;;;;;5.57;3.33;;;17.30;99.90;;;;;;5069248;23;20259;-94
2022/04/27 10:11:24;;;;;;;11.57;4.00;;;17.50;99.90;;;;;;5094653;23;20181;-95
2022/04/27 10:13:25;;;;;;;8.13;4.10;;;17.20;99.90;;;;;;5093712;23;20646;-91
2022/04/27 10:15:26;;;;;;;9.18;3.90;;;16.80;99.90;;;;;;5118904;23;20196;-91
2022/04/27 10:17:28;;;;;;;9.05;4.18;;;16.00;99.90;;;;;;5069344;23;20155;-94
2022/04/27 10:19:29;;;;;;;6.45;3.85;;;15.60;99.90;;;;;;5094033;23;20157;-93
2022/04/27 10:21:56;;;;;;;7.22;3.25;;;15.60;99.90;;;;;;5094092;23;20214;-92
2022/04/27 10:23:57;;;;;;;8.52;3.67;;;15.50;99.90;;;;;;5069245;23;20149;-92
2022/04/27 10:26:17;;;;;;;9.68;3.80;;;15.40;99.90;;;;;;5117290;23;20595;-91
2022/04/27 10:28:24;;;;;;;6.07;3.67;;;15.50;99.90;;;;;;5093768;23;20223;-93
2022/04/27 10:30:42;;;;;;;6.95;3.80;;;15.90;99.90;;;;;;5119623;23;20148;-94
2022/04/27 10:32:47;;;;;;;8.75;3.83;;;15.60;99.90;;;;;;5094247;23;20642;-94
2022/04/27 10:35:17;;;;;;;8.27;4.03;;;15.30;99.90;;;;;;5069923;23;20161;-94
2022/04/27 10:37:44;;;;;;;8.23;4.00;;;15.10;99.90;;;;;;5068771;23;20154;-91
2022/04/27 10:39:45;;;;;;;6.85;3.90;;;15.50;99.90;;;;;;5070205;23;20170;-96
2022/04/27 10:41:53;;;;;;;8.38;4.13;;;15.90;99.90;;;;;;5095827;23;20192;-92
2022/04/27 10:43:54;;;;;;;14.00;4.50;;;15.70;99.90;;;;;;5071431;23;20156;-92
2022/04/27 10:45:55;;;;;;;6.15;4.07;;;15.40;99.90;;;;;;5097802;23;20152;-94
2022/04/27 10:47:56;;;;;;;7.05;4.13;;;15.50;99.90;;;;;;5094702;23;20181;-96
2022/04/27 10:50:14;;;;;;;7.05;4.25;;;15.30;99.90;;;;;;5070168;23;20176;-95
2022/04/27 10:52:15;;;;;;;7.63;4.70;;;15.40;99.90;;;;;;5094145;23;20156;-95
2022/04/27 10:54:27;;;;;;;8.57;4.50;;;15.50;99.90;;;;;;5093688;23;20484;-95
2022/04/27 10:56:29;;;;;;;7.35;4.32;;;15.40;99.90;;;;;;5118508;23;20213;-93
2022/04/27 10:58:34;;;;;;;8.63;3.85;;;15.30;99.90;;;;;;5093499;23;20260;-94
2022/04/27 11:00:36;;;;;;;10.88;4.93;;;15.30;99.90;;;;;;5092823;23;20192;-92
2022/04/27 11:02:37;;;;;;;11.65;5.00;;;15.30;99.90;;;;;;5119102;23;20151;-94
2022/04/27 11:04:38;;;;;;;7.15;3.95;;;15.30;99.90;;;;;;5095584;23;20153;-94
2022/04/27 11:07:04;;;;;;;6.35;3.75;;;15.50;99.90;;;;;;5068708;23;20145;-95
2022/04/27 11:09:25;;;;;;;10.70;4.50;;;15.50;99.90;;;;;;5093056;23;20180;-93
2022/04/27 11:11:27;;;;;;;8.27;4.60;;;15.70;99.90;;;;;;5069596;23;20667;-96
2022/04/27 11:13:31;;;;;;;7.93;4.63;;;15.90;99.90;;;;;;5094394;23;20164;-92